sensor_id;sensor_type;location;lat;lon;timestamp;pressure;altitude;pressure_sealevel;temperature;humidity
40285;BME280;25997;50.214;19.354;2023-05-31T00:00:33;98391.63;;;11.41;40.42
40285;BME280;25997;50.214;19.354;2023-05-31T00:03:36;98400.47;;;11.44;40.58
40285;BME280;25997;50.214;19.354;2023-05-31T00:06:41;98410.97;;;11.43;40.51
40285;BME280;25997;50.214;19.354;2023-05-31T00:09:45;98407.41;;;11.41;40.63
40285;BME280;25997;50.214;19.354;2023-05-31T00:12:49;98402.00;;;11.36;40.78
40285;BME280;25997;50.214;19.354;2023-05-31T00:15:52;98406.25;;;11.31;40.90
40285;BME280;25997;50.214;19.354;2023-05-31T00:18:54;98403.53;;;11.28;40.75
40285;BME280;25997;50.214;19.354;2023-05-31T00:21:58;98403.41;;;11.24;40.91
40285;BME280;25997;50.214;19.354;2023-05-31T00:25:00;98401.44;;;11.17;41.13
40285;BME280;25997;50.214;19.354;2023-05-31T00:28:04;98402.03;;;11.08;41.47
40285;BME280;25997;50.214;19.354;2023-05-31T00:31:07;98393.91;;;11.01;41.34
40285;BME280;25997;50.214;19.354;2023-05-31T00:34:09;98396.97;;;10.86;41.44
40285;BME280;25997;50.214;19.354;2023-05-31T00:37:13;98401.84;;;10.74;41.41
40285;BME280;25997;50.214;19.354;2023-05-31T00:40:15;98405.25;;;10.71;41.45
40285;BME280;25997;50.214;19.354;2023-05-31T00:43:19;98408.66;;;10.67;41.61
40285;BME280;25997;50.214;19.354;2023-05-31T00:46:26;98405.97;;;10.66;41.75
40285;BME280;25997;50.214;19.354;2023-05-31T00:49:29;98410.16;;;10.59;41.63
40285;BME280;25997;50.214;19.354;2023-05-31T00:52:32;98411.59;;;10.50;42.04
40285;BME280;25997;50.214;19.354;2023-05-31T00:55:36;98424.38;;;10.39;42.11
40285;BME280;25997;50.214;19.354;2023-05-31T00:58:41;98407.22;;;10.24;42.31
40285;BME280;25997;50.214;19.354;2023-05-31T01:01:44;98418.91;;;10.07;42.50
40285;BME280;25997;50.214;19.354;2023-05-31T01:04:49;98413.16;;;9.93;42.82
40285;BME280;25997;50.214;19.354;2023-05-31T01:07:52;98417.34;;;9.88;42.90
40285;BME280;25997;50.214;19.354;2023-05-31T01:10:58;98408.53;;;9.86;42.97
40285;BME280;25997;50.214;19.354;2023-05-31T01:14:13;98407.63;;;9.85;43.22
40285;BME280;25997;50.214;19.354;2023-05-31T01:17:21;98422.56;;;9.88;42.92
40285;BME280;25997;50.214;19.354;2023-05-31T01:20:32;98421.78;;;9.90;42.79
40285;BME280;25997;50.214;19.354;2023-05-31T01:23:53;98420.06;;;9.91;43.33
40285;BME280;25997;50.214;19.354;2023-05-31T01:27:03;98425.25;;;9.89;42.88
40285;BME280;25997;50.214;19.354;2023-05-31T01:30:08;98419.97;;;9.88;42.87
40285;BME280;25997;50.214;19.354;2023-05-31T01:33:12;98416.38;;;9.86;42.75
40285;BME280;25997;50.214;19.354;2023-05-31T01:36:15;98418.13;;;9.85;42.86
40285;BME280;25997;50.214;19.354;2023-05-31T01:39:18;98414.59;;;9.85;42.89
40285;BME280;25997;50.214;19.354;2023-05-31T01:42:23;98405.81;;;9.84;43.03
40285;BME280;25997;50.214;19.354;2023-05-31T01:45:27;98410.19;;;9.84;43.09
40285;BME280;25997;50.214;19.354;2023-05-31T01:48:31;98406.34;;;9.74;43.34
40285;BME280;25997;50.214;19.354;2023-05-31T01:51:36;98412.00;;;9.61;43.42
40285;BME280;25997;50.214;19.354;2023-05-31T01:54:39;98416.03;;;9.52;43.75
40285;BME280;25997;50.214;19.354;2023-05-31T01:57:45;98415.94;;;9.49;43.61
40285;BME280;25997;50.214;19.354;2023-05-31T02:00:49;98414.13;;;9.48;43.47
40285;BME280;25997;50.214;19.354;2023-05-31T02:03:53;98412.25;;;9.44;43.68
40285;BME280;25997;50.214;19.354;2023-05-31T02:06:55;98409.50;;;9.41;43.70
40285;BME280;25997;50.214;19.354;2023-05-31T02:09:59;98405.81;;;9.36;43.76
40285;BME280;25997;50.214;19.354;2023-05-31T02:13:03;98409.34;;;9.36;43.99
40285;BME280;25997;50.214;19.354;2023-05-31T02:16:06;98412.91;;;9.38;43.88
40285;BME280;25997;50.214;19.354;2023-05-31T02:19:09;98413.69;;;9.36;43.84
40285;BME280;25997;50.214;19.354;2023-05-31T02:22:15;98415.31;;;9.32;43.97
40285;BME280;25997;50.214;19.354;2023-05-31T02:25:17;98411.69;;;9.28;44.12
40285;BME280;25997;50.214;19.354;2023-05-31T02:28:21;98407.88;;;9.20;44.20
40285;BME280;25997;50.214;19.354;2023-05-31T02:31:25;98405.84;;;9.13;44.25
40285;BME280;25997;50.214;19.354;2023-05-31T02:34:28;98406.66;;;9.11;44.20
40285;BME280;25997;50.214;19.354;2023-05-31T02:37:31;98406.66;;;9.11;44.30
40285;BME280;25997;50.214;19.354;2023-05-31T02:40:34;98407.34;;;9.07;44.26
40285;BME280;25997;50.214;19.354;2023-05-31T02:43:38;98416.50;;;8.94;44.41
40285;BME280;25997;50.214;19.354;2023-05-31T02:46:40;98408.66;;;8.74;44.63
40285;BME280;25997;50.214;19.354;2023-05-31T02:49:43;98412.53;;;8.61;44.96
40285;BME280;25997;50.214;19.354;2023-05-31T02:52:45;98419.31;;;8.56;44.95
40285;BME280;25997;50.214;19.354;2023-05-31T02:55:51;98422.78;;;8.55;45.05
40285;BME280;25997;50.214;19.354;2023-05-31T02:58:55;98424.44;;;8.53;45.11
40285;BME280;25997;50.214;19.354;2023-05-31T03:02:13;98421.72;;;8.51;45.02
40285;BME280;25997;50.214;19.354;2023-05-31T03:05:16;98428.59;;;8.48;45.00
40285;BME280;25997;50.214;19.354;2023-05-31T03:08:19;98431.41;;;8.32;44.97
40285;BME280;25997;50.214;19.354;2023-05-31T03:11:23;98444.75;;;8.17;45.26
40285;BME280;25997;50.214;19.354;2023-05-31T03:14:28;98440.22;;;8.13;45.58
40285;BME280;25997;50.214;19.354;2023-05-31T03:17:31;98440.38;;;8.18;45.45
40285;BME280;25997;50.214;19.354;2023-05-31T03:20:33;98448.56;;;8.25;45.41
40285;BME280;25997;50.214;19.354;2023-05-31T03:23:36;98447.84;;;8.29;45.52
40285;BME280;25997;50.214;19.354;2023-05-31T03:26:39;98443.78;;;8.36;45.44
40285;BME280;25997;50.214;19.354;2023-05-31T03:29:43;98451.75;;;8.39;45.98
40285;BME280;25997;50.214;19.354;2023-05-31T03:32:47;98452.66;;;8.39;46.28
40285;BME280;25997;50.214;19.354;2023-05-31T03:35:49;98453.03;;;8.48;45.78
40285;BME280;25997;50.214;19.354;2023-05-31T03:38:52;98453.28;;;8.54;45.93
40285;BME280;25997;50.214;19.354;2023-05-31T03:41:54;98455.41;;;8.65;45.64
40285;BME280;25997;50.214;19.354;2023-05-31T03:44:58;98456.69;;;8.74;45.60
40285;BME280;25997;50.214;19.354;2023-05-31T03:48:03;98459.66;;;8.83;45.82
40285;BME280;25997;50.214;19.354;2023-05-31T03:51:05;98461.06;;;8.96;45.55
40285;BME280;25997;50.214;19.354;2023-05-31T03:54:08;98460.78;;;9.10;45.37
40285;BME280;25997;50.214;19.354;2023-05-31T03:57:12;98455.97;;;9.22;45.26
40285;BME280;25997;50.214;19.354;2023-05-31T04:00:17;98457.28;;;9.34;45.44
40285;BME280;25997;50.214;19.354;2023-05-31T04:03:26;98446.16;;;9.39;45.36
40285;BME280;25997;50.214;19.354;2023-05-31T04:06:28;98441.25;;;9.48;45.11
40285;BME280;25997;50.214;19.354;2023-05-31T04:09:31;98443.47;;;9.61;45.03
40285;BME280;25997;50.214;19.354;2023-05-31T04:12:33;98448.44;;;9.77;45.15
40285;BME280;25997;50.214;19.354;2023-05-31T04:15:37;98444.53;;;9.91;44.92
40285;BME280;25997;50.214;19.354;2023-05-31T04:18:40;98449.53;;;10.08;44.90
40285;BME280;25997;50.214;19.354;2023-05-31T04:21:43;98443.84;;;10.21;44.91
40285;BME280;25997;50.214;19.354;2023-05-31T04:24:47;98441.84;;;10.39;44.92
40285;BME280;25997;50.214;19.354;2023-05-31T04:27:54;98437.25;;;10.58;44.77
40285;BME280;25997;50.214;19.354;2023-05-31T04:30:59;98436.03;;;10.75;44.55
40285;BME280;25997;50.214;19.354;2023-05-31T04:34:03;98434.84;;;10.93;44.37
40285;BME280;25997;50.214;19.354;2023-05-31T04:37:08;98429.34;;;11.13;44.33
40285;BME280;25997;50.214;19.354;2023-05-31T04:40:12;98438.69;;;11.32;44.26
40285;BME280;25997;50.214;19.354;2023-05-31T04:43:15;98446.97;;;11.45;44.33
40285;BME280;25997;50.214;19.354;2023-05-31T04:46:22;98452.72;;;11.62;44.27
40285;BME280;25997;50.214;19.354;2023-05-31T04:49:26;98446.19;;;11.79;44.12
40285;BME280;25997;50.214;19.354;2023-05-31T04:52:29;98457.09;;;11.93;44.04
40285;BME280;25997;50.214;19.354;2023-05-31T04:55:33;98466.31;;;12.08;43.75
40285;BME280;25997;50.214;19.354;2023-05-31T04:58:40;98470.16;;;12.20;43.72
40285;BME280;25997;50.214;19.354;2023-05-31T05:01:52;98470.56;;;12.36;43.82
40285;BME280;25997;50.214;19.354;2023-05-31T05:04:54;98470.03;;;12.49;43.54
40285;BME280;25997;50.214;19.354;2023-05-31T05:07:57;98472.09;;;12.61;43.59
40285;BME280;25997;50.214;19.354;2023-05-31T05:11:00;98475.84;;;12.70;43.67
40285;BME280;25997;50.214;19.354;2023-05-31T05:14:03;98467.47;;;12.86;43.59
40285;BME280;25997;50.214;19.354;2023-05-31T05:17:07;98468.59;;;12.98;43.53
40285;BME280;25997;50.214;19.354;2023-05-31T05:20:10;98472.53;;;13.13;43.44
40285;BME280;25997;50.214;19.354;2023-05-31T05:23:14;98466.69;;;13.29;43.36
40285;BME280;25997;50.214;19.354;2023-05-31T05:26:17;98470.56;;;13.45;43.21
40285;BME280;25997;50.214;19.354;2023-05-31T05:29:20;98471.78;;;13.60;43.10
40285;BME280;25997;50.214;19.354;2023-05-31T05:32:24;98463.22;;;13.72;42.89
40285;BME280;25997;50.214;19.354;2023-05-31T05:35:28;98466.25;;;13.90;42.63
40285;BME280;25997;50.214;19.354;2023-05-31T05:38:31;98461.38;;;14.10;42.44
40285;BME280;25997;50.214;19.354;2023-05-31T05:41:34;98465.19;;;14.27;42.27
40285;BME280;25997;50.214;19.354;2023-05-31T05:44:38;98466.44;;;14.47;42.13
40285;BME280;25997;50.214;19.354;2023-05-31T05:47:42;98465.84;;;14.63;41.90
40285;BME280;25997;50.214;19.354;2023-05-31T05:50:46;98472.31;;;14.80;41.47
40285;BME280;25997;50.214;19.354;2023-05-31T05:53:49;98469.06;;;14.96;41.43
40285;BME280;25997;50.214;19.354;2023-05-31T05:56:51;98467.59;;;15.15;41.17
40285;BME280;25997;50.214;19.354;2023-05-31T05:59:54;98465.22;;;15.33;41.22
40285;BME280;25997;50.214;19.354;2023-05-31T06:02:58;98470.72;;;15.48;41.06
40285;BME280;25997;50.214;19.354;2023-05-31T06:06:01;98473.66;;;15.68;41.05
40285;BME280;25997;50.214;19.354;2023-05-31T06:09:04;98470.41;;;15.92;40.65
40285;BME280;25997;50.214;19.354;2023-05-31T06:12:07;98473.31;;;16.13;40.76
40285;BME280;25997;50.214;19.354;2023-05-31T06:15:13;98467.31;;;16.32;40.48
40285;BME280;25997;50.214;19.354;2023-05-31T06:18:17;98479.91;;;16.48;40.03
40285;BME280;25997;50.214;19.354;2023-05-31T06:21:20;98479.94;;;16.56;40.04
40285;BME280;25997;50.214;19.354;2023-05-31T06:24:23;98473.09;;;16.79;39.45
40285;BME280;25997;50.214;19.354;2023-05-31T06:27:25;98469.72;;;17.02;39.45
40285;BME280;25997;50.214;19.354;2023-05-31T06:30:28;98468.13;;;17.21;39.33
40285;BME280;25997;50.214;19.354;2023-05-31T06:33:33;98475.31;;;17.34;39.00
40285;BME280;25997;50.214;19.354;2023-05-31T06:36:36;98470.91;;;17.38;38.89
40285;BME280;25997;50.214;19.354;2023-05-31T06:39:38;98455.94;;;17.52;39.00
40285;BME280;25997;50.214;19.354;2023-05-31T06:42:41;98463.97;;;17.71;38.63
40285;BME280;25997;50.214;19.354;2023-05-31T06:46:09;98468.50;;;17.92;37.80
40285;BME280;25997;50.214;19.354;2023-05-31T06:49:53;98465.91;;;18.01;36.87
40285;BME280;25997;50.214;19.354;2023-05-31T06:53:15;98472.13;;;18.08;36.44
40285;BME280;25997;50.214;19.354;2023-05-31T06:56:21;98471.25;;;18.09;35.70
40285;BME280;25997;50.214;19.354;2023-05-31T06:59:23;98469.50;;;18.11;35.59
40285;BME280;25997;50.214;19.354;2023-05-31T07:02:26;98467.75;;;18.25;35.01
40285;BME280;25997;50.214;19.354;2023-05-31T07:05:31;98466.00;;;18.49;35.01
40285;BME280;25997;50.214;19.354;2023-05-31T07:08:34;98465.16;;;18.64;34.63
40285;BME280;25997;50.214;19.354;2023-05-31T07:11:54;98474.06;;;18.72;34.56
40285;BME280;25997;50.214;19.354;2023-05-31T07:14:59;98477.59;;;18.88;34.61
40285;BME280;25997;50.214;19.354;2023-05-31T07:18:01;98474.94;;;18.88;34.12
40285;BME280;25997;50.214;19.354;2023-05-31T07:21:06;98470.50;;;18.87;33.73
40285;BME280;25997;50.214;19.354;2023-05-31T07:24:09;98463.41;;;18.95;33.79
40285;BME280;25997;50.214;19.354;2023-05-31T07:27:12;98462.50;;;19.00;33.36
40285;BME280;25997;50.214;19.354;2023-05-31T07:30:15;98458.06;;;19.10;33.59
40285;BME280;25997;50.214;19.354;2023-05-31T07:33:18;98465.16;;;19.37;33.55
40285;BME280;25997;50.214;19.354;2023-05-31T07:36:22;98464.22;;;19.59;33.37
40285;BME280;25997;50.214;19.354;2023-05-31T07:39:26;98466.88;;;19.66;32.92
40285;BME280;25997;50.214;19.354;2023-05-31T07:42:28;98462.34;;;19.91;33.31
40285;BME280;25997;50.214;19.354;2023-05-31T07:45:31;98457.81;;;20.08;32.70
40285;BME280;25997;50.214;19.354;2023-05-31T07:48:34;98464.00;;;20.15;32.60
40285;BME280;25997;50.214;19.354;2023-05-31T07:51:38;98467.56;;;20.15;32.99
40285;BME280;25997;50.214;19.354;2023-05-31T07:54:40;98449.69;;;20.31;32.86
40285;BME280;25997;50.214;19.354;2023-05-31T07:57:43;98454.91;;;20.50;33.04
40285;BME280;25997;50.214;19.354;2023-05-31T08:00:46;98452.09;;;20.68;32.77
40285;BME280;25997;50.214;19.354;2023-05-31T08:03:48;98441.31;;;20.84;32.06
40285;BME280;25997;50.214;19.354;2023-05-31T08:06:53;98445.66;;;20.97;31.44
40285;BME280;25997;50.214;19.354;2023-05-31T08:09:55;98448.25;;;21.03;31.10
40285;BME280;25997;50.214;19.354;2023-05-31T08:12:58;98437.63;;;20.98;30.93
40285;BME280;25997;50.214;19.354;2023-05-31T08:16:00;98436.63;;;21.07;31.23
40285;BME280;25997;50.214;19.354;2023-05-31T08:19:03;98443.63;;;21.21;30.95
40285;BME280;25997;50.214;19.354;2023-05-31T08:22:07;98439.97;;;21.30;30.76
40285;BME280;25997;50.214;19.354;2023-05-31T08:25:10;98438.03;;;21.47;30.84
40285;BME280;25997;50.214;19.354;2023-05-31T08:28:14;98430.91;;;21.47;30.14
40285;BME280;25997;50.214;19.354;2023-05-31T08:31:17;98431.88;;;21.40;30.54
40285;BME280;25997;50.214;19.354;2023-05-31T08:34:20;98453.94;;;21.61;30.76
40285;BME280;25997;50.214;19.354;2023-05-31T08:37:23;98443.97;;;21.75;30.27
40285;BME280;25997;50.214;19.354;2023-05-31T08:40:26;98438.16;;;21.39;30.25
40285;BME280;25997;50.214;19.354;2023-05-31T08:43:29;98438.50;;;20.99;30.78
40285;BME280;25997;50.214;19.354;2023-05-31T08:46:32;98444.94;;;20.80;30.81
40285;BME280;25997;50.214;19.354;2023-05-31T08:49:36;98445.63;;;21.01;31.27
40285;BME280;25997;50.214;19.354;2023-05-31T08:52:41;98441.03;;;21.14;29.81
40285;BME280;25997;50.214;19.354;2023-05-31T08:55:45;98428.75;;;20.96;30.26
40285;BME280;25997;50.214;19.354;2023-05-31T08:58:50;98435.75;;;21.08;30.34
40285;BME280;25997;50.214;19.354;2023-05-31T09:01:52;98443.88;;;20.97;29.90
40285;BME280;25997;50.214;19.354;2023-05-31T09:04:56;98425.31;;;20.81;30.31
40285;BME280;25997;50.214;19.354;2023-05-31T09:08:00;98434.72;;;21.21;30.65
40285;BME280;25997;50.214;19.354;2023-05-31T09:11:03;98445.44;;;21.19;29.93
40285;BME280;25997;50.214;19.354;2023-05-31T09:14:05;98445.19;;;21.45;29.55
40285;BME280;25997;50.214;19.354;2023-05-31T09:17:09;98441.19;;;21.84;29.33
40285;BME280;25997;50.214;19.354;2023-05-31T09:20:12;98438.03;;;22.20;28.90
40285;BME280;25997;50.214;19.354;2023-05-31T09:23:17;98441.38;;;22.36;28.55
40285;BME280;25997;50.214;19.354;2023-05-31T09:26:20;98434.53;;;22.16;29.05
40285;BME280;25997;50.214;19.354;2023-05-31T09:29:23;98436.44;;;22.07;28.74
40285;BME280;25997;50.214;19.354;2023-05-31T09:32:25;98439.06;;;22.10;29.18
40285;BME280;25997;50.214;19.354;2023-05-31T09:35:28;98433.63;;;22.16;28.68
40285;BME280;25997;50.214;19.354;2023-05-31T09:38:33;98430.41;;;22.52;28.96
40285;BME280;25997;50.214;19.354;2023-05-31T09:41:36;98433.91;;;23.12;28.59
40285;BME280;25997;50.214;19.354;2023-05-31T09:44:38;98425.75;;;24.10;28.75
40285;BME280;25997;50.214;19.354;2023-05-31T09:47:41;98430.13;;;24.90;29.07
40285;BME280;25997;50.214;19.354;2023-05-31T09:50:43;98433.84;;;25.54;28.57
40285;BME280;25997;50.214;19.354;2023-05-31T09:53:48;98432.22;;;25.79;26.80
40285;BME280;25997;50.214;19.354;2023-05-31T09:56:53;98427.72;;;25.80;27.68
40285;BME280;25997;50.214;19.354;2023-05-31T09:59:59;98421.09;;;25.60;26.51
40285;BME280;25997;50.214;19.354;2023-05-31T10:03:03;98416.97;;;25.14;27.00
40285;BME280;25997;50.214;19.354;2023-05-31T10:06:07;98415.72;;;24.58;27.10
40285;BME280;25997;50.214;19.354;2023-05-31T10:09:11;98412.47;;;24.04;27.60
40285;BME280;25997;50.214;19.354;2023-05-31T10:12:14;98409.66;;;23.66;27.62
40285;BME280;25997;50.214;19.354;2023-05-31T10:15:21;98401.09;;;23.47;27.66
40285;BME280;25997;50.214;19.354;2023-05-31T10:18:28;98399.75;;;23.25;28.02
40285;BME280;25997;50.214;19.354;2023-05-31T10:21:31;98401.38;;;23.76;27.60
40285;BME280;25997;50.214;19.354;2023-05-31T10:24:42;98395.09;;;24.20;26.49
40285;BME280;25997;50.214;19.354;2023-05-31T10:27:51;98391.88;;;24.44;26.40
40285;BME280;25997;50.214;19.354;2023-05-31T10:30:57;98389.59;;;24.63;26.72
40285;BME280;25997;50.214;19.354;2023-05-31T10:34:07;98382.13;;;24.75;25.81
40285;BME280;25997;50.214;19.354;2023-05-31T10:37:16;98375.53;;;25.22;25.82
40285;BME280;25997;50.214;19.354;2023-05-31T10:40:24;98370.25;;;25.82;25.15
40285;BME280;25997;50.214;19.354;2023-05-31T10:43:35;98380.84;;;26.45;25.01
40285;BME280;25997;50.214;19.354;2023-05-31T10:46:39;98384.28;;;27.30;25.03
40285;BME280;25997;50.214;19.354;2023-05-31T10:49:43;98385.44;;;28.19;24.80
40285;BME280;25997;50.214;19.354;2023-05-31T10:52:50;98384.97;;;28.96;24.20
40285;BME280;25997;50.214;19.354;2023-05-31T10:56:01;98388.31;;;29.64;23.06
40285;BME280;25997;50.214;19.354;2023-05-31T10:59:05;98382.09;;;29.62;23.74
40285;BME280;25997;50.214;19.354;2023-05-31T11:02:11;98383.59;;;29.88;24.04
40285;BME280;25997;50.214;19.354;2023-05-31T11:05:21;98381.16;;;30.39;22.24
40285;BME280;25997;50.214;19.354;2023-05-31T11:08:24;98375.38;;;30.83;22.98
40285;BME280;25997;50.214;19.354;2023-05-31T11:11:45;98381.22;;;30.75;21.92
40285;BME280;25997;50.214;19.354;2023-05-31T11:14:59;98373.16;;;30.55;19.38
40285;BME280;25997;50.214;19.354;2023-05-31T11:18:02;98366.34;;;30.46;23.29
40285;BME280;25997;50.214;19.354;2023-05-31T11:21:05;98353.28;;;30.73;22.99
40285;BME280;25997;50.214;19.354;2023-05-31T11:24:07;98352.25;;;30.93;22.41
40285;BME280;25997;50.214;19.354;2023-05-31T11:27:12;98352.72;;;31.01;21.97
40285;BME280;25997;50.214;19.354;2023-05-31T11:30:15;98347.16;;;30.87;22.10
40285;BME280;25997;50.214;19.354;2023-05-31T11:33:18;98349.97;;;31.19;21.70
40285;BME280;25997;50.214;19.354;2023-05-31T11:36:22;98354.25;;;31.41;21.45
40285;BME280;25997;50.214;19.354;2023-05-31T11:39:25;98343.19;;;31.28;21.74
40285;BME280;25997;50.214;19.354;2023-05-31T11:42:30;98335.19;;;31.59;21.47
40285;BME280;25997;50.214;19.354;2023-05-31T11:45:33;98342.53;;;31.90;21.80
40285;BME280;25997;50.214;19.354;2023-05-31T11:48:38;98335.31;;;32.06;21.37
40285;BME280;25997;50.214;19.354;2023-05-31T11:51:43;98334.97;;;32.12;20.67
40285;BME280;25997;50.214;19.354;2023-05-31T11:54:48;98332.94;;;32.00;20.36
40285;BME280;25997;50.214;19.354;2023-05-31T11:57:52;98323.59;;;31.38;20.71
40285;BME280;25997;50.214;19.354;2023-05-31T12:00:59;98329.50;;;31.64;20.17
40285;BME280;25997;50.214;19.354;2023-05-31T12:04:03;98326.06;;;31.93;20.37
40285;BME280;25997;50.214;19.354;2023-05-31T12:07:07;98332.50;;;32.23;19.55
40285;BME280;25997;50.214;19.354;2023-05-31T12:10:09;98323.72;;;32.34;20.04
40285;BME280;25997;50.214;19.354;2023-05-31T12:13:15;98320.69;;;32.55;19.75
40285;BME280;25997;50.214;19.354;2023-05-31T12:16:18;98324.69;;;32.80;19.36
40285;BME280;25997;50.214;19.354;2023-05-31T12:19:21;98314.47;;;32.53;19.28
40285;BME280;25997;50.214;19.354;2023-05-31T12:22:24;98319.41;;;32.92;19.29
40285;BME280;25997;50.214;19.354;2023-05-31T12:25:27;98326.00;;;33.18;19.59
40285;BME280;25997;50.214;19.354;2023-05-31T12:28:31;98322.84;;;33.10;19.35
40285;BME280;25997;50.214;19.354;2023-05-31T12:31:37;98313.91;;;33.37;19.15
40285;BME280;25997;50.214;19.354;2023-05-31T12:34:39;98314.03;;;33.64;19.09
40285;BME280;25997;50.214;19.354;2023-05-31T12:37:43;98314.34;;;33.88;19.01
40285;BME280;25997;50.214;19.354;2023-05-31T12:40:46;98318.53;;;33.93;18.53
40285;BME280;25997;50.214;19.354;2023-05-31T12:43:50;98318.06;;;33.87;18.43
40285;BME280;25997;50.214;19.354;2023-05-31T12:47:00;98304.78;;;34.09;18.06
40285;BME280;25997;50.214;19.354;2023-05-31T12:50:03;98304.38;;;34.01;18.37
40285;BME280;25997;50.214;19.354;2023-05-31T12:53:07;98302.72;;;34.12;18.38
40285;BME280;25997;50.214;19.354;2023-05-31T12:56:10;98302.22;;;34.34;18.02
40285;BME280;25997;50.214;19.354;2023-05-31T12:59:14;98294.59;;;33.84;18.05
40285;BME280;25997;50.214;19.354;2023-05-31T13:02:16;98296.91;;;33.76;18.19
40285;BME280;25997;50.214;19.354;2023-05-31T13:05:19;98293.69;;;33.56;18.47
40285;BME280;25997;50.214;19.354;2023-05-31T13:08:21;98291.38;;;33.78;18.34
40285;BME280;25997;50.214;19.354;2023-05-31T13:11:24;98296.50;;;33.96;17.63
40285;BME280;25997;50.214;19.354;2023-05-31T13:14:27;98287.66;;;33.65;17.62
40285;BME280;25997;50.214;19.354;2023-05-31T13:17:30;98282.75;;;32.68;18.06
40285;BME280;25997;50.214;19.354;2023-05-31T13:20:34;98287.41;;;32.66;17.72
40285;BME280;25997;50.214;19.354;2023-05-31T13:23:36;98280.44;;;31.00;17.85
40285;BME280;25997;50.214;19.354;2023-05-31T13:26:39;98285.81;;;30.48;19.21
40285;BME280;25997;50.214;19.354;2023-05-31T13:29:43;98265.09;;;31.16;18.53
40285;BME280;25997;50.214;19.354;2023-05-31T13:32:45;98271.59;;;31.79;18.31
40285;BME280;25997;50.214;19.354;2023-05-31T13:35:48;98271.63;;;32.57;18.00
40285;BME280;25997;50.214;19.354;2023-05-31T13:38:51;98268.38;;;32.96;17.43
40285;BME280;25997;50.214;19.354;2023-05-31T13:41:53;98265.59;;;33.25;16.90
40285;BME280;25997;50.214;19.354;2023-05-31T13:44:57;98265.38;;;33.00;17.49
40285;BME280;25997;50.214;19.354;2023-05-31T13:48:00;98263.03;;;33.38;17.31
40285;BME280;25997;50.214;19.354;2023-05-31T13:51:02;98267.69;;;33.92;17.12
40285;BME280;25997;50.214;19.354;2023-05-31T13:54:05;98262.13;;;33.94;17.16
40285;BME280;25997;50.214;19.354;2023-05-31T13:57:08;98250.47;;;33.64;17.42
40285;BME280;25997;50.214;19.354;2023-05-31T14:00:13;98257.09;;;33.74;17.44
40285;BME280;25997;50.214;19.354;2023-05-31T14:03:16;98253.53;;;33.15;17.24
40285;BME280;25997;50.214;19.354;2023-05-31T14:06:18;98247.19;;;32.87;17.18
40285;BME280;25997;50.214;19.354;2023-05-31T14:09:21;98240.47;;;32.62;16.84
40285;BME280;25997;50.214;19.354;2023-05-31T14:12:23;98243.81;;;32.82;17.40
40285;BME280;25997;50.214;19.354;2023-05-31T14:15:27;98242.25;;;33.21;16.74
40285;BME280;25997;50.214;19.354;2023-05-31T14:18:30;98237.72;;;33.36;16.89
40285;BME280;25997;50.214;19.354;2023-05-31T14:21:32;98229.66;;;33.49;16.77
40285;BME280;25997;50.214;19.354;2023-05-31T14:24:35;98228.19;;;33.43;16.72
40285;BME280;25997;50.214;19.354;2023-05-31T14:27:37;98220.59;;;33.48;16.50
40285;BME280;25997;50.214;19.354;2023-05-31T14:30:41;98223.25;;;33.78;15.98
40285;BME280;25997;50.214;19.354;2023-05-31T14:33:44;98229.22;;;33.97;16.27
40285;BME280;25997;50.214;19.354;2023-05-31T14:36:46;98230.31;;;33.66;16.60
40285;BME280;25997;50.214;19.354;2023-05-31T14:39:49;98231.84;;;33.28;16.55
40285;BME280;25997;50.214;19.354;2023-05-31T14:42:51;98231.50;;;33.48;16.34
40285;BME280;25997;50.214;19.354;2023-05-31T14:45:55;98231.97;;;33.26;16.88
40285;BME280;25997;50.214;19.354;2023-05-31T14:48:58;98235.63;;;33.25;16.88
40285;BME280;25997;50.214;19.354;2023-05-31T14:52:00;98223.31;;;33.20;16.00
40285;BME280;25997;50.214;19.354;2023-05-31T14:55:03;98215.56;;;33.42;16.20
40285;BME280;25997;50.214;19.354;2023-05-31T14:58:06;98228.09;;;33.87;16.33
40285;BME280;25997;50.214;19.354;2023-05-31T15:01:10;98210.91;;;33.99;16.11
40285;BME280;25997;50.214;19.354;2023-05-31T15:04:14;98211.56;;;33.76;16.09
40285;BME280;25997;50.214;19.354;2023-05-31T15:07:17;98205.31;;;33.45;16.08
40285;BME280;25997;50.214;19.354;2023-05-31T15:10:20;98207.44;;;33.26;16.08
40285;BME280;25997;50.214;19.354;2023-05-31T15:13:22;98210.47;;;33.64;15.78
40285;BME280;25997;50.214;19.354;2023-05-31T15:16:26;98208.47;;;33.94;15.70
40285;BME280;25997;50.214;19.354;2023-05-31T15:19:29;98205.72;;;34.08;15.82
40285;BME280;25997;50.214;19.354;2023-05-31T15:22:31;98195.75;;;33.95;15.21
40285;BME280;25997;50.214;19.354;2023-05-31T15:25:34;98202.56;;;33.88;15.82
40285;BME280;25997;50.214;19.354;2023-05-31T15:28:36;98195.78;;;33.67;15.35
40285;BME280;25997;50.214;19.354;2023-05-31T15:31:40;98189.91;;;32.88;15.76
40285;BME280;25997;50.214;19.354;2023-05-31T15:34:43;98191.97;;;32.39;16.13
40285;BME280;25997;50.214;19.354;2023-05-31T15:37:45;98189.66;;;32.18;16.10
40285;BME280;25997;50.214;19.354;2023-05-31T15:40:48;98184.31;;;32.00;16.01
40285;BME280;25997;50.214;19.354;2023-05-31T15:44:14;98178.78;;;31.86;15.79
40285;BME280;25997;50.214;19.354;2023-05-31T15:47:46;98173.75;;;31.94;16.42
40285;BME280;25997;50.214;19.354;2023-05-31T15:50:49;98171.69;;;32.45;15.94
40285;BME280;25997;50.214;19.354;2023-05-31T15:53:51;98177.47;;;32.98;15.97
40285;BME280;25997;50.214;19.354;2023-05-31T15:56:54;98174.28;;;33.20;15.59
40285;BME280;25997;50.214;19.354;2023-05-31T15:59:56;98178.34;;;32.99;15.49
40285;BME280;25997;50.214;19.354;2023-05-31T16:03:00;98179.84;;;33.32;15.54
40285;BME280;25997;50.214;19.354;2023-05-31T16:06:04;98184.78;;;33.54;15.46